createdAt,value
2023-03-17T00:01:24.967Z,8.90
2023-03-17T00:03:53.004Z,8.90
2023-03-17T00:06:26.182Z,8.90
2023-03-17T00:08:54.220Z,8.80
2023-03-17T00:11:24.486Z,8.80
2023-03-17T00:13:52.920Z,8.80
2023-03-17T00:16:23.081Z,8.80
2023-03-17T00:18:54.677Z,8.80
2023-03-17T00:21:28.125Z,8.80
2023-03-17T00:23:56.932Z,8.70
2023-03-17T00:26:26.597Z,8.70
2023-03-17T00:28:55.341Z,8.70
2023-03-17T00:31:25.946Z,8.60
2023-03-17T00:33:55.715Z,8.60
2023-03-17T00:36:25.324Z,8.70
2023-03-17T00:38:56.207Z,8.60
2023-03-17T00:41:25.755Z,8.60
2023-03-17T00:43:54.059Z,8.60
2023-03-17T00:46:27.899Z,8.60
2023-03-17T00:48:56.088Z,8.50
2023-03-17T00:51:24.321Z,8.50
2023-03-17T00:53:52.684Z,8.40
2023-03-17T00:56:22.456Z,8.50
2023-03-17T00:58:53.211Z,8.50
2023-03-17T01:01:21.223Z,8.40
2023-03-17T01:03:49.309Z,8.40
2023-03-17T01:06:17.765Z,8.40
2023-03-17T01:08:46.631Z,8.40
2023-03-17T01:11:18.752Z,8.40
2023-03-17T01:13:47.796Z,8.40
2023-03-17T01:16:18.032Z,8.40
2023-03-17T01:18:46.298Z,8.30
2023-03-17T01:21:15.436Z,8.30
2023-03-17T01:23:43.697Z,8.30
2023-03-17T01:26:11.861Z,8.30
2023-03-17T01:28:39.784Z,8.30
2023-03-17T01:31:07.731Z,8.30
2023-03-17T01:33:36.955Z,8.30
2023-03-17T01:36:05.094Z,8.30
2023-03-17T01:38:32.997Z,8.30
2023-03-17T01:41:02.302Z,8.20
2023-03-17T01:43:32.073Z,8.20
2023-03-17T01:46:29.576Z,8.20
2023-03-17T01:49:04.389Z,8.20
2023-03-17T01:51:36.628Z,8.10
2023-03-17T01:54:09.321Z,8.10
2023-03-17T01:56:38.541Z,8.10
2023-03-17T01:59:10.561Z,8.00
2023-03-17T02:01:43.629Z,8.00
2023-03-17T02:04:13.477Z,8.00
2023-03-17T02:06:56.791Z,8.00
2023-03-17T02:09:26.375Z,8.00
2023-03-17T02:11:55.543Z,8.00
2023-03-17T02:14:23.646Z,8.00
2023-03-17T02:16:51.730Z,8.00
2023-03-17T02:19:21.080Z,8.00
2023-03-17T02:21:51.955Z,8.00
2023-03-17T02:24:29.365Z,7.90
2023-03-17T02:27:02.017Z,7.90
2023-03-17T02:29:32.489Z,7.90
2023-03-17T02:32:00.433Z,7.90
2023-03-17T02:34:28.413Z,7.90
2023-03-17T02:36:58.480Z,7.80
2023-03-17T02:39:27.496Z,7.80
2023-03-17T02:41:55.878Z,7.80
2023-03-17T02:44:23.795Z,7.80
2023-03-17T02:46:51.891Z,7.80
2023-03-17T02:49:20.500Z,7.80
2023-03-17T02:51:48.470Z,7.80
2023-03-17T02:54:17.725Z,7.70
2023-03-17T02:56:45.874Z,7.70
2023-03-17T02:59:13.789Z,7.70
2023-03-17T03:01:41.700Z,7.70
2023-03-17T03:04:10.571Z,7.70
2023-03-17T03:06:39.884Z,7.70
2023-03-17T03:09:07.821Z,7.70
2023-03-17T03:11:37.380Z,7.70
2023-03-17T03:14:05.542Z,7.60
2023-03-17T03:16:34.817Z,7.60
2023-03-17T03:19:02.736Z,7.60
2023-03-17T03:21:30.696Z,7.60
2023-03-17T03:23:58.697Z,7.60
2023-03-17T03:26:27.284Z,7.60
2023-03-17T03:28:57.382Z,7.50
2023-03-17T03:31:26.166Z,7.50
2023-03-17T03:33:54.502Z,7.50
2023-03-17T03:36:23.263Z,7.50
2023-03-17T03:38:51.377Z,7.50
2023-03-17T03:41:19.492Z,7.50
2023-03-17T03:43:47.336Z,7.50
2023-03-17T03:46:16.787Z,7.50
2023-03-17T03:48:44.681Z,7.40
2023-03-17T03:51:12.627Z,7.40
2023-03-17T03:53:40.965Z,7.40
2023-03-17T03:56:09.352Z,7.40
2023-03-17T03:58:37.274Z,7.40
2023-03-17T04:01:06.142Z,7.40
2023-03-17T04:03:35.558Z,7.50
2023-03-17T04:06:03.939Z,7.40
2023-03-17T04:08:32.621Z,7.40
2023-03-17T04:11:00.580Z,7.40
2023-03-17T04:13:28.449Z,7.40
2023-03-17T04:15:56.460Z,7.50
2023-03-17T04:18:24.431Z,7.40
2023-03-17T04:20:53.706Z,7.40
2023-03-17T04:23:22.063Z,7.40
2023-03-17T04:25:51.894Z,7.40
2023-03-17T04:28:20.486Z,7.40
2023-03-17T04:30:48.384Z,7.40
2023-03-17T04:33:16.721Z,7.40
2023-03-17T04:35:44.615Z,7.30
2023-03-17T04:38:14.511Z,7.30
2023-03-17T04:40:42.557Z,7.30
2023-03-17T04:43:10.451Z,7.30
2023-03-17T04:45:38.474Z,7.30
2023-03-17T04:48:07.032Z,7.30
2023-03-17T04:50:34.972Z,7.20
2023-03-17T04:53:03.089Z,7.20
2023-03-17T04:55:32.302Z,7.20
2023-03-17T04:58:00.229Z,7.20
2023-03-17T05:00:28.374Z,7.20
2023-03-17T05:02:56.354Z,7.20
2023-03-17T05:05:24.265Z,7.20
2023-03-17T05:07:52.124Z,7.30
2023-03-17T05:10:20.202Z,7.30
2023-03-17T05:12:51.782Z,7.30
2023-03-17T05:15:19.844Z,7.30
2023-03-17T05:17:47.741Z,7.30
2023-03-17T05:20:15.962Z,7.30
2023-03-17T05:22:43.846Z,7.30
2023-03-17T05:25:11.851Z,7.30
2023-03-17T05:27:39.777Z,7.20
2023-03-17T05:30:10.534Z,7.20
2023-03-17T05:32:38.533Z,7.30
2023-03-17T05:35:07.179Z,7.30
2023-03-17T05:37:35.142Z,7.20
2023-03-17T05:40:03.585Z,7.20
2023-03-17T05:42:31.712Z,7.30
2023-03-17T05:45:00.089Z,7.20
2023-03-17T05:47:29.638Z,7.30
2023-03-17T05:49:57.851Z,7.20
2023-03-17T05:52:26.168Z,7.30
2023-03-17T05:54:54.675Z,7.20
2023-03-17T05:57:22.811Z,7.30
2023-03-17T05:59:50.815Z,7.30
2023-03-17T06:02:18.891Z,7.30
2023-03-17T06:04:48.626Z,7.30
2023-03-17T06:07:17.432Z,7.30
2023-03-17T06:09:45.388Z,7.30
2023-03-17T06:12:13.334Z,7.30
2023-03-17T06:14:41.271Z,7.40
2023-03-17T06:17:09.306Z,7.40
2023-03-17T06:19:37.263Z,7.40
2023-03-17T06:22:07.019Z,7.40
2023-03-17T06:24:35.218Z,7.50
2023-03-17T06:27:03.186Z,7.50
2023-03-17T06:29:31.864Z,7.50
2023-03-17T06:32:17.115Z,7.60
2023-03-17T06:34:48.138Z,7.60
2023-03-17T06:37:17.431Z,7.70
2023-03-17T06:39:45.414Z,7.70
2023-03-17T06:42:13.656Z,7.80
2023-03-17T06:44:41.725Z,7.90
2023-03-17T06:47:09.716Z,7.90
2023-03-17T06:49:37.712Z,8.00
2023-03-17T06:52:05.955Z,8.00
2023-03-17T06:54:36.519Z,8.10
2023-03-17T06:57:05.629Z,8.10
2023-03-17T06:59:33.757Z,8.10
2023-03-17T07:02:01.803Z,8.20
2023-03-17T07:04:29.769Z,8.20
2023-03-17T07:06:57.804Z,8.30
2023-03-17T07:09:25.778Z,8.30
2023-03-17T07:11:55.068Z,8.40
2023-03-17T07:14:23.134Z,8.40
2023-03-17T07:16:51.228Z,8.50
2023-03-17T07:19:19.176Z,8.50
2023-03-17T07:21:47.240Z,8.60
2023-03-17T07:24:15.219Z,8.60
2023-03-17T07:26:43.155Z,8.70
2023-03-17T07:29:12.395Z,8.70
2023-03-17T07:31:41.209Z,8.80
2023-03-17T07:34:09.208Z,8.80
2023-03-17T07:36:37.911Z,8.90
2023-03-17T07:39:06.530Z,9.00
2023-03-17T07:41:35.111Z,9.10
2023-03-17T07:44:03.887Z,9.20
2023-03-17T07:46:33.201Z,9.30
2023-03-17T07:49:01.680Z,9.40
2023-03-17T07:51:29.655Z,9.60
2023-03-17T07:54:03.309Z,9.70
2023-03-17T07:56:32.026Z,9.80
2023-03-17T07:59:00.274Z,10.00
2023-03-17T08:01:28.947Z,10.10
2023-03-17T08:03:58.330Z,10.20
2023-03-17T08:06:26.526Z,10.30
2023-03-17T08:08:55.772Z,10.40
2023-03-17T08:11:24.350Z,10.50
2023-03-17T08:13:52.389Z,10.60
2023-03-17T08:16:20.334Z,10.70
2023-03-17T08:18:48.340Z,10.80
2023-03-17T08:21:17.691Z,10.80
2023-03-17T08:23:45.721Z,10.90
2023-03-17T08:26:14.259Z,11.10
2023-03-17T08:28:42.989Z,11.20
2023-03-17T08:31:12.869Z,11.40
2023-03-17T08:33:42.339Z,11.50
2023-03-17T08:36:12.763Z,11.60
2023-03-17T08:38:43.567Z,11.70
2023-03-17T08:41:14.089Z,11.90
2023-03-17T08:43:44.093Z,12.00
2023-03-17T08:46:16.878Z,12.20
2023-03-17T08:48:46.768Z,12.40
2023-03-17T08:51:18.304Z,12.70
2023-03-17T08:53:48.573Z,12.90
2023-03-17T08:56:16.881Z,13.00
2023-03-17T08:58:45.146Z,13.10
2023-03-17T09:01:13.305Z,13.20
2023-03-17T09:03:41.845Z,13.20
2023-03-17T09:06:12.390Z,13.40
2023-03-17T09:08:44.710Z,13.50
2023-03-17T09:11:16.523Z,13.60
2023-03-17T09:13:44.825Z,13.60
2023-03-17T09:16:12.884Z,13.70
2023-03-17T09:18:41.212Z,13.80
2023-03-17T09:21:09.813Z,14.00
2023-03-17T09:23:38.076Z,14.10
2023-03-17T09:26:06.316Z,14.30
2023-03-17T09:28:35.627Z,14.40
2023-03-17T09:31:06.148Z,14.50
2023-03-17T09:33:34.196Z,14.60
2023-03-17T09:36:02.128Z,14.80
2023-03-17T09:38:30.176Z,15.10
2023-03-17T09:41:05.861Z,15.50
2023-03-17T09:43:42.940Z,15.90
2023-03-17T09:46:24.807Z,16.20
2023-03-17T09:49:01.088Z,16.50
2023-03-17T09:51:30.244Z,16.70
2023-03-17T09:54:02.583Z,16.70
2023-03-17T09:56:34.797Z,16.70
2023-03-17T09:59:23.739Z,16.50
2023-03-17T10:01:51.897Z,16.60
2023-03-17T10:04:20.189Z,16.80
2023-03-17T10:06:48.861Z,17.00
2023-03-17T10:09:26.698Z,17.10
2023-03-17T10:12:03.256Z,17.10
2023-03-17T10:14:49.017Z,17.20
2023-03-17T10:17:21.068Z,17.20
2023-03-17T10:19:56.822Z,17.50
2023-03-17T10:22:31.051Z,17.80
2023-03-17T10:25:03.866Z,18.20
2023-03-17T10:27:37.568Z,18.60
2023-03-17T10:30:16.108Z,19.10
2023-03-17T10:32:45.533Z,19.30
2023-03-17T10:35:16.161Z,19.20
2023-03-17T10:37:45.677Z,19.20
2023-03-17T10:40:24.521Z,19.40
2023-03-17T10:42:56.477Z,19.90
2023-03-17T10:45:29.460Z,20.30
2023-03-17T10:47:58.757Z,20.30
2023-03-17T10:50:30.401Z,20.30
2023-03-17T10:53:01.024Z,20.40
2023-03-17T10:55:32.589Z,20.30
2023-03-17T10:58:04.836Z,20.10
2023-03-17T11:00:36.202Z,19.80
2023-03-17T11:03:13.075Z,19.60
2023-03-17T11:05:43.368Z,19.70
2023-03-17T11:08:18.527Z,19.80
2023-03-17T11:10:46.747Z,20.40
2023-03-17T11:13:18.246Z,21.20
2023-03-17T11:15:52.513Z,22.00
2023-03-17T11:18:26.565Z,22.30
2023-03-17T11:21:00.556Z,22.50
2023-03-17T11:23:46.311Z,22.30
2023-03-17T11:26:34.775Z,22.00
2023-03-17T11:29:21.073Z,21.20
2023-03-17T11:31:57.395Z,20.50
2023-03-17T11:34:36.939Z,20.00
2023-03-17T11:37:12.908Z,19.50
2023-03-17T11:39:51.137Z,19.30
2023-03-17T11:42:24.589Z,19.40
2023-03-17T11:45:03.740Z,19.70
2023-03-17T11:48:02.610Z,20.00
2023-03-17T11:50:35.536Z,20.50
2023-03-17T11:53:31.957Z,20.50
2023-03-17T11:56:04.197Z,20.20
2023-03-17T11:58:37.560Z,20.20
2023-03-17T12:01:09.072Z,20.00
2023-03-17T12:03:46.001Z,19.90
2023-03-17T12:06:17.931Z,19.70
2023-03-17T12:08:52.557Z,19.50
2023-03-17T12:11:25.512Z,19.20
2023-03-17T12:13:58.458Z,19.00
2023-03-17T12:16:33.142Z,18.70
2023-03-17T12:19:12.261Z,18.60
2023-03-17T12:21:50.240Z,18.50
2023-03-17T12:24:21.163Z,18.40
2023-03-17T12:26:55.774Z,18.30
2023-03-17T12:29:31.924Z,18.20
2023-03-17T12:32:05.905Z,18.10
2023-03-17T12:34:44.625Z,18.10
2023-03-17T12:37:12.829Z,18.00
2023-03-17T12:39:54.704Z,18.00
2023-03-17T12:42:47.825Z,18.00
2023-03-17T12:45:32.472Z,17.90
2023-03-17T12:48:22.217Z,17.90
2023-03-17T12:51:17.699Z,17.90
2023-03-17T12:53:47.844Z,17.80
2023-03-17T12:56:21.765Z,17.70
2023-03-17T12:58:51.643Z,17.70
2023-03-17T13:01:28.531Z,17.70
2023-03-17T13:04:05.578Z,17.70
2023-03-17T13:06:40.766Z,17.70
2023-03-17T13:09:39.542Z,17.70
2023-03-17T13:12:28.163Z,17.90
2023-03-17T13:14:58.769Z,18.00
2023-03-17T13:17:34.879Z,18.00
2023-03-17T13:20:17.213Z,18.00
2023-03-17T13:23:07.593Z,17.90
2023-03-17T13:25:36.930Z,17.90
2023-03-17T13:28:23.784Z,17.90
2023-03-17T13:30:58.308Z,17.90
2023-03-17T13:33:32.205Z,17.80
2023-03-17T13:36:17.740Z,17.80
2023-03-17T13:39:19.841Z,17.80
2023-03-17T13:42:08.561Z,17.80
2023-03-17T13:45:10.012Z,17.90
2023-03-17T13:47:42.360Z,17.90
2023-03-17T13:50:16.129Z,18.00
2023-03-17T13:52:49.656Z,18.00
2023-03-17T13:55:43.473Z,18.00
2023-03-17T13:58:34.247Z,18.00
2023-03-17T14:01:07.301Z,18.00
2023-03-17T14:03:41.541Z,18.10
2023-03-17T14:06:13.331Z,18.10
2023-03-17T14:08:46.775Z,18.10
2023-03-17T14:11:24.849Z,18.00
2023-03-17T14:14:06.030Z,18.00
2023-03-17T14:16:37.400Z,18.00
2023-03-17T14:19:17.653Z,17.90
2023-03-17T14:21:45.761Z,17.90
2023-03-17T14:24:22.439Z,17.80
2023-03-17T14:26:53.078Z,17.60
2023-03-17T14:29:26.190Z,17.50
2023-03-17T14:32:03.509Z,17.40
2023-03-17T14:34:32.383Z,17.30
2023-03-17T14:37:02.625Z,17.20
2023-03-17T14:39:31.041Z,17.10
2023-03-17T14:42:02.145Z,17.00
2023-03-17T14:44:37.231Z,17.00
2023-03-17T14:47:08.719Z,16.90
2023-03-17T14:49:37.680Z,16.90
2023-03-17T14:52:06.037Z,16.80
2023-03-17T14:54:35.758Z,16.90
2023-03-17T14:57:08.158Z,16.90
2023-03-17T14:59:38.831Z,16.80
2023-03-17T15:02:21.966Z,16.70
2023-03-17T15:04:55.290Z,16.70
2023-03-17T15:07:33.010Z,16.70
2023-03-17T15:10:02.800Z,16.60
2023-03-17T15:12:33.013Z,16.60
2023-03-17T15:15:04.277Z,16.60
2023-03-17T15:17:34.120Z,16.60
2023-03-17T15:20:05.489Z,16.50
2023-03-17T15:22:41.356Z,16.60
2023-03-17T15:25:20.092Z,16.50
2023-03-17T15:27:49.834Z,16.40
2023-03-17T15:30:19.522Z,16.40
2023-03-17T15:32:52.833Z,16.40
2023-03-17T15:35:21.351Z,16.30
2023-03-17T15:37:49.275Z,16.30
2023-03-17T15:40:17.374Z,16.30
2023-03-17T15:42:45.923Z,16.20
2023-03-17T15:45:17.982Z,16.20
2023-03-17T15:47:47.361Z,16.20
2023-03-17T15:50:18.318Z,16.20
2023-03-17T15:52:46.903Z,16.20
2023-03-17T15:55:21.879Z,16.10
2023-03-17T15:57:55.160Z,16.10
2023-03-17T16:00:26.632Z,16.10
2023-03-17T16:02:56.192Z,16.10
2023-03-17T16:05:26.225Z,16.10
2023-03-17T16:07:54.374Z,16.00
2023-03-17T16:10:24.152Z,16.00
2023-03-17T16:12:52.685Z,15.90
2023-03-17T16:15:23.722Z,15.90
2023-03-17T16:17:56.269Z,15.80
2023-03-17T16:20:27.073Z,15.80
2023-03-17T16:22:57.104Z,15.70
2023-03-17T16:25:29.282Z,15.60
2023-03-17T16:27:59.023Z,15.60
2023-03-17T16:30:29.545Z,15.50
2023-03-17T16:33:02.070Z,15.40
2023-03-17T16:35:30.751Z,15.30
2023-03-17T16:37:58.829Z,15.20
2023-03-17T16:40:28.861Z,15.20
2023-03-17T16:42:57.807Z,15.10
2023-03-17T16:45:28.598Z,15.10
2023-03-17T16:47:57.777Z,15.10
2023-03-17T16:50:29.816Z,15.00
2023-03-17T16:52:58.343Z,15.00
2023-03-17T16:55:28.099Z,14.90
2023-03-17T16:58:00.620Z,14.80
2023-03-17T17:00:31.221Z,14.80
2023-03-17T17:02:59.769Z,14.80
2023-03-17T17:05:31.248Z,14.80
2023-03-17T17:07:59.733Z,14.70
2023-03-17T17:10:29.966Z,14.70
2023-03-17T17:12:58.207Z,14.60
2023-03-17T17:15:26.526Z,14.60
2023-03-17T17:17:57.921Z,14.60
2023-03-17T17:20:30.789Z,14.60
2023-03-17T17:22:59.572Z,14.60
2023-03-17T17:25:28.238Z,14.50
2023-03-17T17:27:57.172Z,14.50
2023-03-17T17:30:28.093Z,14.50
2023-03-17T17:32:57.804Z,14.50
2023-03-17T17:35:32.004Z,14.40
2023-03-17T17:38:01.097Z,14.40
2023-03-17T17:40:30.413Z,14.40
2023-03-17T17:42:59.226Z,14.30
2023-03-17T17:45:27.489Z,14.30
2023-03-17T17:47:56.390Z,14.30
2023-03-17T17:50:29.473Z,14.30
2023-03-17T17:53:04.780Z,14.20
2023-03-17T17:55:34.155Z,14.20
2023-03-17T17:58:02.269Z,14.20
2023-03-17T18:00:30.699Z,14.10
2023-03-17T18:02:58.947Z,14.10
2023-03-17T18:05:28.474Z,14.10
2023-03-17T18:07:56.379Z,14.10
2023-03-17T18:10:25.985Z,14.00
2023-03-17T18:12:55.535Z,14.00
2023-03-17T18:15:24.222Z,14.00
2023-03-17T18:17:52.568Z,13.90
2023-03-17T18:20:22.616Z,13.90
2023-03-17T18:22:52.885Z,13.90
2023-03-17T18:25:21.509Z,13.90
2023-03-17T18:27:49.839Z,13.80
2023-03-17T18:30:23.344Z,13.80
2023-03-17T18:32:54.069Z,13.80
2023-03-17T18:35:24.219Z,13.80
2023-03-17T18:37:54.021Z,13.80
2023-03-17T18:40:22.193Z,13.80
2023-03-17T18:42:50.048Z,13.70
2023-03-17T18:45:18.193Z,13.70
2023-03-17T18:47:46.176Z,13.70
2023-03-17T18:50:16.419Z,13.70
2023-03-17T18:52:44.896Z,13.70
2023-03-17T18:55:16.235Z,13.70
2023-03-17T18:57:45.811Z,13.70
2023-03-17T19:00:16.238Z,13.70
2023-03-17T19:02:44.656Z,13.70
2023-03-17T19:05:14.870Z,13.80
2023-03-17T19:07:43.212Z,13.80
2023-03-17T19:10:15.077Z,13.80
2023-03-17T19:12:43.996Z,13.80
2023-03-17T19:15:14.510Z,13.80
2023-03-17T19:17:43.047Z,13.80
2023-03-17T19:20:13.184Z,13.80
2023-03-17T19:22:41.548Z,13.80
2023-03-17T19:25:10.673Z,13.70
2023-03-17T19:27:40.074Z,13.70
2023-03-17T19:30:09.391Z,13.70
2023-03-17T19:32:37.422Z,13.60
2023-03-17T19:35:08.463Z,13.60
2023-03-17T19:37:38.024Z,13.60
2023-03-17T19:40:08.150Z,13.60
2023-03-17T19:42:38.860Z,13.60
2023-03-17T19:45:09.701Z,13.50
2023-03-17T19:47:37.697Z,13.50
2023-03-17T19:50:07.096Z,13.50
2023-03-17T19:52:35.076Z,13.40
2023-03-17T19:55:04.087Z,13.40
2023-03-17T19:57:32.858Z,13.40
2023-03-17T20:00:00.961Z,13.40
2023-03-17T20:02:30.478Z,13.40
2023-03-17T20:04:58.432Z,13.30
2023-03-17T20:07:26.365Z,13.30
2023-03-17T20:09:54.390Z,13.30
2023-03-17T20:12:22.750Z,13.30
2023-03-17T20:14:51.043Z,13.30
2023-03-17T20:17:19.351Z,13.20
2023-03-17T20:19:48.829Z,13.20
2023-03-17T20:22:17.116Z,13.20
2023-03-17T20:24:45.741Z,13.20
2023-03-17T20:27:15.377Z,13.20
2023-03-17T20:29:43.845Z,13.20
2023-03-17T20:32:14.767Z,13.20
2023-03-17T20:34:43.319Z,13.20
2023-03-17T20:37:14.149Z,13.10
2023-03-17T20:39:42.392Z,13.10
2023-03-17T20:42:14.449Z,13.10
2023-03-17T20:44:42.978Z,13.00
2023-03-17T20:47:11.297Z,13.00
2023-03-17T20:49:39.239Z,12.90
2023-03-17T20:52:08.661Z,12.90
2023-03-17T20:54:38.878Z,12.80
2023-03-17T20:57:07.173Z,12.70
2023-03-17T20:59:36.310Z,12.70
2023-03-17T21:02:04.863Z,12.60
2023-03-17T21:04:33.093Z,12.60
2023-03-17T21:07:01.012Z,12.50
2023-03-17T21:09:28.946Z,12.50
2023-03-17T21:11:58.272Z,12.40
2023-03-17T21:14:26.683Z,12.40
2023-03-17T21:16:55.059Z,12.30
2023-03-17T21:19:23.467Z,12.20
2023-03-17T21:21:51.492Z,12.20
2023-03-17T21:24:27.504Z,12.10
2023-03-17T21:26:55.734Z,12.10
2023-03-17T21:29:25.063Z,12.10
2023-03-17T21:31:53.323Z,12.00
2023-03-17T21:34:21.901Z,12.00
2023-03-17T21:36:49.827Z,11.90
2023-03-17T21:39:17.888Z,11.90
2023-03-17T21:41:46.894Z,11.90
2023-03-17T21:44:15.890Z,11.80
2023-03-17T21:46:46.499Z,11.80
2023-03-17T21:49:16.115Z,11.80
2023-03-17T21:51:44.349Z,11.70
2023-03-17T21:54:12.649Z,11.70
2023-03-17T21:56:41.390Z,11.70
2023-03-17T21:59:10.943Z,11.60
2023-03-17T22:01:39.212Z,11.60
2023-03-17T22:04:09.093Z,11.60
2023-03-17T22:06:37.118Z,11.60
2023-03-17T22:09:06.371Z,11.50
2023-03-17T22:11:34.336Z,11.60
2023-03-17T22:14:02.486Z,11.50
2023-03-17T22:16:30.665Z,11.50
2023-03-17T22:18:58.646Z,11.40
2023-03-17T22:21:29.768Z,11.40
2023-03-17T22:23:57.824Z,11.40
2023-03-17T22:26:25.768Z,11.40
2023-03-17T22:28:53.737Z,11.40
2023-03-17T22:31:24.180Z,11.40
2023-03-17T22:33:54.970Z,11.30
2023-03-17T22:36:23.420Z,11.30
2023-03-17T22:38:52.808Z,11.30
2023-03-17T22:41:22.601Z,11.30
2023-03-17T22:43:50.830Z,11.20
2023-03-17T22:46:19.110Z,11.20
2023-03-17T22:48:47.550Z,11.20
2023-03-17T22:51:17.582Z,11.20
2023-03-17T22:53:46.428Z,11.20
2023-03-17T22:56:17.439Z,11.20
2023-03-17T22:58:46.331Z,11.20
2023-03-17T23:01:16.432Z,11.20
2023-03-17T23:03:45.382Z,11.20
2023-03-17T23:06:14.488Z,11.10
2023-03-17T23:08:43.544Z,11.10
2023-03-17T23:11:16.307Z,11.20
2023-03-17T23:13:45.347Z,11.20
2023-03-17T23:16:13.582Z,11.20
2023-03-17T23:18:42.321Z,11.20
2023-03-17T23:21:11.536Z,11.20
2023-03-17T23:23:41.353Z,11.20
2023-03-17T23:26:09.323Z,11.20
2023-03-17T23:28:38.717Z,11.20
2023-03-17T23:31:06.995Z,11.20
2023-03-17T23:33:35.005Z,11.20
2023-03-17T23:36:03.041Z,11.20
2023-03-17T23:38:30.966Z,11.20
2023-03-17T23:40:59.111Z,11.20
2023-03-17T23:43:27.410Z,11.20
2023-03-17T23:45:56.741Z,11.20
2023-03-17T23:48:25.503Z,11.10
2023-03-17T23:50:54.276Z,11.10
2023-03-17T23:53:24.071Z,11.10
2023-03-17T23:55:52.763Z,11.10
2023-03-17T23:58:21.196Z,11.10
